Time;durP1;ratioP1;P1;durP2;ratioP2;P2;SDS_P1;SDS_P2;PMS_P1;PMS_P2;Temp;Humidity;BMP_temperature;BMP_pressure;BME280_temperature;BME280_humidity;BME280_pressure;Samples;Min_cycle;Max_cycle;Signal;HPM_P1;HPM_P2
2023/11/15 00:01:20;;;;;;;4.93;2.30;;;;;;;11.39;100.00;99401.69;5071124;28;20053;-43
2023/11/15 00:03:48;;;;;;;5.32;2.05;;;;;;;11.33;100.00;99398.63;5071081;28;20073;-44
2023/11/15 00:06:17;;;;;;;5.25;2.30;;;;;;;11.35;100.00;99400.19;5071567;28;20048;-44
2023/11/15 00:08:46;;;;;;;5.45;2.00;;;;;;;11.25;100.00;99404.53;5071801;28;20067;-43
2023/11/15 00:11:18;;;;;;;4.32;2.28;;;;;;;11.21;100.00;99415.59;5071795;28;20401;-43
2023/11/15 00:13:50;;;;;;;4.93;2.22;;;;;;;11.14;100.00;99391.16;5071050;28;20250;-43
2023/11/15 00:16:22;;;;;;;8.02;2.45;;;;;;;11.31;100.00;99385.38;5071480;28;20044;-44
2023/11/15 00:18:54;;;;;;;4.82;2.30;;;;;;;11.26;100.00;99398.22;5070075;28;20044;-44
2023/11/15 00:21:23;;;;;;;4.68;2.25;;;;;;;11.35;100.00;99421.56;5071080;28;20140;-46
2023/11/15 00:23:51;;;;;;;5.28;2.70;;;;;;;11.25;100.00;99425.91;5071108;28;20102;-45
2023/11/15 00:26:30;;;;;;;5.22;2.72;;;;;;;11.26;100.00;99424.94;5071490;28;20045;-44
2023/11/15 00:29:12;;;;;;;6.70;2.40;;;;;;;11.28;100.00;99444.34;5070272;28;20083;-44
2023/11/15 00:31:40;;;;;;;5.80;2.60;;;;;;;11.33;100.00;99450.19;5075827;28;20084;-44
2023/11/15 00:34:09;;;;;;;5.45;2.55;;;;;;;11.31;100.00;99436.13;5077940;28;20098;-45
2023/11/15 00:36:39;;;;;;;5.60;2.42;;;;;;;11.21;100.00;99424.44;5075363;28;20048;-46
2023/11/15 00:39:08;;;;;;;4.57;2.50;;;;;;;11.20;100.00;99416.56;5074941;28;20052;-45
2023/11/15 00:41:39;;;;;;;5.10;2.30;;;;;;;11.04;100.00;99408.84;5075025;28;20049;-45
2023/11/15 00:44:10;;;;;;;6.65;2.38;;;;;;;11.13;100.00;99409.00;5074897;28;20048;-44
2023/11/15 00:46:38;;;;;;;4.93;2.42;;;;;;;11.24;100.00;99408.19;5074870;28;20052;-44
2023/11/15 00:49:07;;;;;;;4.97;2.70;;;;;;;11.28;100.00;99419.47;5074876;28;20051;-45
2023/11/15 00:51:37;;;;;;;4.70;2.30;;;;;;;11.26;100.00;99405.38;5074484;28;20861;-44
2023/11/15 00:54:09;;;;;;;4.72;2.47;;;;;;;11.22;100.00;99410.13;5073891;28;20105;-44
2023/11/15 00:56:39;;;;;;;7.15;2.65;;;;;;;11.16;100.00;99408.75;5074832;28;20067;-43
2023/11/15 00:59:09;;;;;;;5.75;2.42;;;;;;;11.25;100.00;99404.53;5074727;28;20049;-44
2023/11/15 01:01:38;;;;;;;6.80;2.60;;;;;;;11.24;100.00;99413.53;5074544;28;20048;-44
2023/11/15 01:04:06;;;;;;;5.57;2.85;;;;;;;11.28;100.00;99409.63;5074273;28;20044;-43
2023/11/15 01:06:35;;;;;;;5.15;2.60;;;;;;;11.26;100.00;99402.72;5074712;28;20052;-43
2023/11/15 01:09:07;;;;;;;6.00;2.83;;;;;;;11.27;100.00;99402.59;5074451;28;20098;-44
2023/11/15 01:11:41;;;;;;;5.67;2.70;;;;;;;11.25;100.00;99401.88;5074541;28;20139;-44
2023/11/15 01:14:12;;;;;;;5.82;2.75;;;;;;;11.25;100.00;99399.19;5074368;28;20044;-42
2023/11/15 01:16:42;;;;;;;7.00;2.67;;;;;;;11.27;100.00;99391.91;5074241;28;20382;-44
2023/11/15 01:19:10;;;;;;;5.75;2.70;;;;;;;11.23;100.00;99401.16;5074445;28;20048;-44
2023/11/15 01:21:38;;;;;;;6.18;2.70;;;;;;;11.26;100.00;99400.91;5074117;28;20048;-44
2023/11/15 01:24:10;;;;;;;5.97;2.97;;;;;;;11.22;100.00;99402.13;5073896;28;20052;-43
2023/11/15 01:26:38;;;;;;;5.35;2.78;;;;;;;11.26;100.00;99397.38;5074070;28;20052;-44
2023/11/15 01:29:08;;;;;;;6.40;2.80;;;;;;;11.26;100.00;99392.88;5073857;28;20090;-44
2023/11/15 01:31:37;;;;;;;4.80;2.35;;;;;;;11.24;100.00;99397.50;5073999;28;20056;-48
2023/11/15 01:34:06;;;;;;;5.63;2.40;;;;;;;11.27;100.00;99391.91;5074068;28;20057;-43
2023/11/15 01:36:34;;;;;;;5.57;2.55;;;;;;;11.24;100.00;99402.84;5073809;28;20590;-45
2023/11/15 01:39:04;;;;;;;4.72;2.40;;;;;;;11.22;100.00;99410.13;5073878;28;20045;-44
2023/11/15 01:41:32;;;;;;;4.95;2.35;;;;;;;11.22;100.00;99415.47;5073685;28;20056;-43
2023/11/15 01:44:04;;;;;;;6.75;2.88;;;;;;;11.26;100.00;99421.41;5073432;28;20076;-45
2023/11/15 01:46:35;;;;;;;5.07;2.45;;;;;;;11.26;100.00;99411.56;5073960;28;20416;-44
2023/11/15 01:49:05;;;;;;;5.30;2.67;;;;;;;11.29;100.00;99413.16;5073518;28;20466;-45
2023/11/15 01:51:34;;;;;;;4.85;2.50;;;;;;;11.27;100.00;99405.25;5073580;28;20135;-44
2023/11/15 01:54:02;;;;;;;4.15;2.38;;;;;;;11.27;100.00;99397.25;5073490;28;20106;-45
2023/11/15 01:56:34;;;;;;;5.63;2.70;;;;;;;11.27;100.00;99397.25;5073763;28;20057;-45
2023/11/15 01:59:05;;;;;;;6.47;2.80;;;;;;;11.23;100.00;99387.78;5073663;28;20090;-44
2023/11/15 02:01:35;;;;;;;4.22;2.28;;;;;;;11.24;100.00;99385.97;5071856;28;20056;-46
2023/11/15 02:04:05;;;;;;;5.68;2.40;;;;;;;11.21;100.00;99380.88;5073527;28;20080;-44
2023/11/15 02:06:35;;;;;;;5.10;2.70;;;;;;;11.23;100.00;99392.28;5073704;28;20051;-44
2023/11/15 02:09:05;;;;;;;5.30;2.40;;;;;;;11.22;100.00;99388.75;5073135;28;20049;-44
2023/11/15 02:11:34;;;;;;;5.57;2.60;;;;;;;11.22;100.00;99393.25;5072872;28;20044;-44
2023/11/15 02:14:03;;;;;;;6.30;3.20;;;;;;;11.23;100.00;99382.47;5072060;28;20055;-45
2023/11/15 02:16:31;;;;;;;6.53;2.70;;;;;;;11.20;100.00;99385.38;5073122;28;20048;-46
2023/11/15 02:19:01;;;;;;;5.40;2.78;;;;;;;11.22;100.00;99382.56;5073621;28;20063;-45
2023/11/15 02:21:30;;;;;;;5.38;2.70;;;;;;;11.23;100.00;99382.47;5072867;28;20505;-45
2023/11/15 02:24:01;;;;;;;5.90;2.90;;;;;;;11.23;100.00;99382.47;5072826;28;20044;-45
2023/11/15 02:26:29;;;;;;;5.22;2.75;;;;;;;11.26;100.00;99390.22;5072909;28;20044;-44
2023/11/15 02:28:59;;;;;;;7.38;3.22;;;;;;;11.23;100.00;99374.44;5076641;28;20052;-45
2023/11/15 02:31:31;;;;;;;6.28;3.00;;;;;;;11.28;100.00;99376.75;5076069;28;20048;-45
2023/11/15 02:34:00;;;;;;;4.97;2.78;;;;;;;11.23;100.00;99354.91;5072767;28;20049;-45
2023/11/15 02:36:28;;;;;;;6.30;3.35;;;;;;;11.17;100.00;99353.56;5072737;28;20166;-44
2023/11/15 02:38:59;;;;;;;5.20;2.90;;;;;;;11.18;100.00;99357.91;5071447;28;20040;-46
2023/11/15 02:41:29;;;;;;;6.07;2.97;;;;;;;11.17;100.00;99364.22;5072595;28;20071;-47
2023/11/15 02:44:00;;;;;;;4.95;3.13;;;;;;;11.20;100.00;99358.69;5072837;28;20058;-43
2023/11/15 02:46:28;;;;;;;5.22;3.28;;;;;;;11.16;100.00;99351.84;5072331;28;20044;-45
2023/11/15 02:48:59;;;;;;;6.10;2.95;;;;;;;11.13;100.00;99352.09;5072550;28;20113;-45
2023/11/15 02:51:27;;;;;;;7.35;3.38;;;;;;;11.09;100.00;99351.47;5072376;28;20041;-44
2023/11/15 02:53:56;;;;;;;6.40;3.47;;;;;;;11.14;100.00;99359.13;5070815;28;20413;-44
2023/11/15 02:56:25;;;;;;;6.72;3.30;;;;;;;11.05;100.00;99338.50;5072141;28;20060;-43
2023/11/15 02:58:59;;;;;;;7.35;3.10;;;;;;;11.15;100.00;99366.16;5072217;28;20048;-44
2023/11/15 03:01:27;;;;;;;6.38;3.33;;;;;;;11.10;100.00;99321.16;5072412;28;20044;-44
2023/11/15 03:03:55;;;;;;;5.65;3.60;;;;;;;11.11;100.00;99328.19;5072175;28;20222;-44
2023/11/15 03:06:24;;;;;;;5.40;3.40;;;;;;;11.15;100.00;99316.31;5072125;28;20045;-45
2023/11/15 03:08:52;;;;;;;6.28;3.40;;;;;;;11.18;100.00;99307.19;5072056;28;20499;-44
2023/11/15 03:11:24;;;;;;;8.95;3.65;;;;;;;11.17;100.00;99314.38;5072013;28;20083;-45
2023/11/15 03:13:55;;;;;;;7.00;3.88;;;;;;;11.14;100.00;99327.97;5072126;28;20049;-45
2023/11/15 03:16:24;;;;;;;8.52;3.83;;;;;;;11.18;100.00;99344.56;5072232;28;20097;-44
2023/11/15 03:18:52;;;;;;;7.45;3.75;;;;;;;11.16;100.00;99342.03;5071633;28;20055;-44
2023/11/15 03:21:22;;;;;;;7.75;4.10;;;;;;;11.20;100.00;99337.31;5071707;28;20131;-45
2023/11/15 03:23:50;;;;;;;6.75;3.67;;;;;;;11.14;100.00;99324.44;5071630;28;20095;-44
2023/11/15 03:26:19;;;;;;;8.27;4.43;;;;;;;11.05;100.00;99330.47;5071601;28;20135;-45
2023/11/15 03:28:48;;;;;;;6.97;3.72;;;;;;;10.96;100.00;99328.50;5072056;28;20048;-43
2023/11/15 03:31:17;;;;;;;7.60;3.70;;;;;;;10.96;100.00;99333.84;5071767;28;20040;-45
2023/11/15 03:33:47;;;;;;;7.60;3.90;;;;;;;10.95;100.00;99341.00;5103608;28;20051;-44
2023/11/15 03:36:16;;;;;;;7.50;4.25;;;;;;;10.95;100.00;99334.81;5071441;28;20137;-44
2023/11/15 03:38:46;;;;;;;6.22;4.10;;;;;;;10.87;100.00;99332.72;5071425;28;20049;-44
2023/11/15 03:41:15;;;;;;;6.68;4.03;;;;;;;10.82;100.00;99338.44;5071614;28;20401;-45
2023/11/15 03:43:43;;;;;;;7.70;4.38;;;;;;;10.85;100.00;99338.19;5070356;28;20049;-44
2023/11/15 03:46:12;;;;;;;8.65;4.63;;;;;;;10.89;100.00;99328.97;5071451;28;20067;-44
2023/11/15 03:48:40;;;;;;;7.32;4.38;;;;;;;10.90;100.00;99340.50;5071486;28;20114;-44
2023/11/15 03:51:10;;;;;;;8.27;4.95;;;;;;;10.88;100.00;99332.59;5071312;28;20053;-44
2023/11/15 03:53:39;;;;;;;7.95;4.47;;;;;;;10.86;100.00;99334.56;5071537;28;20060;-43
2023/11/15 03:56:09;;;;;;;9.60;5.10;;;;;;;10.90;100.00;99340.50;5071626;28;20058;-44
2023/11/15 03:58:40;;;;;;;10.43;4.95;;;;;;;10.91;100.00;99341.38;5071404;28;20053;-44
2023/11/15 04:01:09;;;;;;;9.27;4.90;;;;;;;10.90;100.00;99348.50;5071215;28;20063;-42
2023/11/15 04:03:38;;;;;;;8.43;5.18;;;;;;;10.89;100.00;99357.47;5071429;28;20041;-43
2023/11/15 04:06:07;;;;;;;12.27;5.28;;;;;;;10.82;100.00;99349.09;5070964;28;20102;-44
2023/11/15 04:08:37;;;;;;;8.32;5.05;;;;;;;10.74;100.00;99346.16;5071152;28;20052;-44
2023/11/15 04:11:06;;;;;;;9.02;5.28;;;;;;;10.75;100.00;99350.53;5071160;28;20041;-43
2023/11/15 04:13:35;;;;;;;7.88;5.22;;;;;;;10.70;100.00;99350.00;5070917;28;20073;-44
2023/11/15 04:16:08;;;;;;;8.90;5.60;;;;;;;10.68;100.00;99351.94;5071183;28;20071;-43
2023/11/15 04:18:38;;;;;;;9.02;5.20;;;;;;;10.60;100.00;99349.00;5070911;28;20114;-44
2023/11/15 04:21:07;;;;;;;9.70;5.95;;;;;;;10.37;100.00;99341.84;5071097;28;20060;-45
2023/11/15 04:23:37;;;;;;;10.77;6.10;;;;;;;10.20;100.00;99346.56;5071120;28;20060;-45
2023/11/15 04:26:06;;;;;;;11.02;6.50;;;;;;;10.29;100.00;99345.06;5071041;28;20056;-43
2023/11/15 04:28:34;;;;;;;10.07;6.28;;;;;;;10.31;100.00;99345.81;5070985;28;20051;-44
2023/11/15 04:31:03;;;;;;;8.85;5.68;;;;;;;10.34;100.00;99342.09;5070813;28;20522;-44
2023/11/15 04:33:32;;;;;;;10.43;6.15;;;;;;;10.37;100.00;99333.84;5070802;28;20114;-44
2023/11/15 04:36:01;;;;;;;9.30;6.13;;;;;;;10.38;100.00;99332.88;5070740;28;20485;-45
2023/11/15 04:38:30;;;;;;;9.05;6.18;;;;;;;10.22;100.00;99318.00;5070358;28;20049;-44
2023/11/15 04:41:01;;;;;;;10.07;6.85;;;;;;;10.24;100.00;99337.44;5070899;28;20079;-46
2023/11/15 04:43:29;;;;;;;10.43;6.68;;;;;;;10.15;100.00;99324.75;5070795;28;20181;-44
2023/11/15 04:45:58;;;;;;;11.10;6.78;;;;;;;10.18;100.00;99327.19;5070632;28;20044;-42
2023/11/15 04:48:26;;;;;;;12.50;6.93;;;;;;;10.17;100.00;99309.50;5070985;28;20055;-43
2023/11/15 04:50:57;;;;;;;10.07;6.15;;;;;;;10.13;100.00;99329.31;5070823;28;20616;-42
2023/11/15 04:53:28;;;;;;;10.80;5.47;;;;;;;10.13;100.00;99320.47;5070904;28;20130;-45
2023/11/15 04:55:57;;;;;;;8.63;4.85;;;;;;;10.13;100.00;99331.97;5071102;28;20071;-44
2023/11/15 04:58:27;;;;;;;8.30;4.85;;;;;;;10.04;100.00;99330.00;5070748;28;20094;-44
2023/11/15 05:00:55;;;;;;;9.23;5.18;;;;;;;10.00;100.00;99323.19;5070721;28;20048;-44
2023/11/15 05:03:24;;;;;;;9.50;5.10;;;;;;;9.86;100.00;99321.53;5070816;28;20052;-45
2023/11/15 05:05:53;;;;;;;10.30;5.60;;;;;;;9.85;100.00;99316.31;5070549;28;20106;-43
2023/11/15 05:08:21;;;;;;;9.00;5.13;;;;;;;9.95;100.00;99320.88;5102706;28;20127;-44
2023/11/15 05:10:52;;;;;;;8.60;4.93;;;;;;;9.93;100.00;99316.59;5070363;28;20053;-43
2023/11/15 05:13:21;;;;;;;8.73;4.82;;;;;;;9.89;100.00;99320.44;5070506;28;20394;-44
2023/11/15 05:15:51;;;;;;;9.75;4.75;;;;;;;9.84;100.00;99325.25;5070679;28;20045;-44
2023/11/15 05:18:19;;;;;;;9.10;5.80;;;;;;;9.80;100.00;99315.78;5072034;28;20497;-43
2023/11/15 05:20:51;;;;;;;8.40;4.75;;;;;;;9.78;100.00;99312.38;5074150;28;20139;-44
2023/11/15 05:23:20;;;;;;;8.55;5.30;;;;;;;9.86;100.00;99318.00;5074072;28;20058;-44
2023/11/15 05:25:48;;;;;;;9.15;4.80;;;;;;;9.85;100.00;99324.31;5073072;28;20052;-44
2023/11/15 05:28:18;;;;;;;8.23;5.10;;;;;;;9.86;100.00;99323.34;5074166;28;20041;-43
2023/11/15 05:30:47;;;;;;;9.10;4.65;;;;;;;9.85;100.00;99329.63;5074029;28;20052;-43
2023/11/15 05:33:17;;;;;;;10.48;6.00;;;;;;;9.86;100.00;99326.00;5074011;28;20088;-43
2023/11/15 05:35:46;;;;;;;9.55;5.63;;;;;;;9.88;100.00;99324.06;5073880;28;20132;-43
2023/11/15 05:38:17;;;;;;;9.98;6.22;;;;;;;9.80;100.00;99323.78;5074134;28;20409;-43
2023/11/15 05:40:49;;;;;;;10.70;5.97;;;;;;;9.81;100.00;99322.81;5074138;28;20044;-45
2023/11/15 05:43:18;;;;;;;8.57;5.05;;;;;;;9.82;100.00;99319.19;5074014;28;20106;-44
2023/11/15 05:45:46;;;;;;;10.38;5.55;;;;;;;9.84;100.00;99315.44;5073850;28;20519;-43
2023/11/15 05:48:17;;;;;;;10.18;6.00;;;;;;;9.78;100.00;99313.22;5074016;28;20052;-44
2023/11/15 05:50:50;;;;;;;9.88;5.97;;;;;;;9.71;100.00;99318.13;5073787;28;20439;-44
2023/11/15 05:53:20;;;;;;;11.27;6.53;;;;;;;9.55;100.00;99314.84;5073685;28;20051;-45
2023/11/15 05:55:49;;;;;;;9.63;5.78;;;;;;;9.59;100.00;99313.69;5073571;28;20040;-43
2023/11/15 05:58:18;;;;;;;9.45;6.13;;;;;;;9.63;100.00;99309.84;5073542;28;20494;-44
2023/11/15 06:00:50;;;;;;;13.75;6.72;;;;;;;9.73;100.00;99318.03;5073355;28;20421;-43
2023/11/15 06:03:19;;;;;;;9.20;6.00;;;;;;;9.56;100.00;99323.72;5073408;28;20508;-47
2023/11/15 06:05:50;;;;;;;11.98;6.43;;;;;;;9.59;100.00;99324.34;5073672;28;20401;-44
2023/11/15 06:08:19;;;;;;;8.93;5.47;;;;;;;9.65;100.00;99315.94;5073388;28;20143;-44
2023/11/15 06:10:48;;;;;;;9.55;5.90;;;;;;;9.65;100.00;99331.03;5073105;28;20094;-44
2023/11/15 06:13:16;;;;;;;10.02;5.65;;;;;;;9.67;100.00;99335.31;5072928;28;20493;-43
2023/11/15 06:15:47;;;;;;;9.20;5.55;;;;;;;9.82;100.00;99341.34;5073009;28;20135;-45
2023/11/15 06:18:16;;;;;;;9.48;5.47;;;;;;;9.83;100.00;99342.19;5073380;28;20051;-43
2023/11/15 06:20:44;;;;;;;9.60;5.53;;;;;;;9.91;100.00;99339.81;5073180;28;20048;-46
2023/11/15 06:23:14;;;;;;;10.15;5.45;;;;;;;9.95;100.00;99336.84;5072728;28;20579;-44
2023/11/15 06:25:46;;;;;;;10.95;5.32;;;;;;;9.82;100.00;99344.00;5072899;28;20469;-43
2023/11/15 06:28:16;;;;;;;9.82;5.88;;;;;;;9.85;100.00;99326.97;5073186;28;20080;-43
2023/11/15 06:30:47;;;;;;;7.82;5.05;;;;;;;9.69;100.00;99327.19;5070720;28;20098;-42
2023/11/15 06:33:16;;;;;;;9.13;5.22;;;;;;;9.95;100.00;99330.66;5073056;28;20047;-43
2023/11/15 06:35:45;;;;;;;9.07;5.85;;;;;;;10.00;100.00;99344.50;5072743;28;20059;-43
2023/11/15 06:38:15;;;;;;;10.05;5.10;;;;;;;10.08;100.00;99341.28;5072638;28;20044;-42
2023/11/15 06:40:43;;;;;;;10.48;5.60;;;;;;;10.11;100.00;99347.22;5072257;28;20051;-45
2023/11/15 06:43:11;;;;;;;10.00;5.35;;;;;;;10.21;100.00;99350.06;5072622;28;20052;-42
2023/11/15 06:45:44;;;;;;;9.32;5.60;;;;;;;10.27;100.00;99355.00;5071392;28;20489;-45
2023/11/15 06:48:12;;;;;;;11.10;5.55;;;;;;;10.12;100.00;99348.94;5072768;28;20048;-44
2023/11/15 06:50:44;;;;;;;8.48;4.60;;;;;;;10.27;100.00;99360.34;5072439;28;20122;-44
2023/11/15 06:53:13;;;;;;;9.88;4.95;;;;;;;10.39;100.00;99347.91;5072120;28;20076;-42
2023/11/15 06:55:46;;;;;;;8.23;5.28;;;;;;;10.10;100.00;99350.00;5071748;28;20076;-43
2023/11/15 06:58:16;;;;;;;8.80;4.75;;;;;;;10.24;100.00;99363.22;5071656;28;20063;-44
2023/11/15 07:00:45;;;;;;;8.30;5.05;;;;;;;10.48;100.00;99357.91;5072144;28;20044;-43
2023/11/15 07:03:13;;;;;;;9.55;4.70;;;;;;;10.44;100.00;99345.78;5072051;28;20555;-43
2023/11/15 07:05:48;;;;;;;6.10;3.55;;;;;;;10.69;100.00;99350.13;5072023;28;20441;-42
2023/11/15 07:08:17;;;;;;;5.38;3.20;;;;;;;10.83;100.00;99361.47;5083143;28;20075;-43
2023/11/15 07:10:50;;;;;;;5.55;3.00;;;;;;;10.86;100.00;99360.38;5092578;28;20052;-42
2023/11/15 07:13:20;;;;;;;5.47;3.50;;;;;;;10.95;100.00;99349.00;5092585;28;20052;-43
2023/11/15 07:15:50;;;;;;;7.20;3.80;;;;;;;10.60;100.00;99355.16;5092410;28;20296;-43
2023/11/15 07:18:21;;;;;;;8.13;4.55;;;;;;;10.43;100.00;99362.75;5091920;28;20044;-42
2023/11/15 07:20:52;;;;;;;8.95;4.20;;;;;;;10.45;100.00;99376.81;5091949;28;20040;-43
2023/11/15 07:23:24;;;;;;;9.15;3.72;;;;;;;10.76;100.00;99386.03;5091892;28;20101;-43
2023/11/15 07:25:55;;;;;;;6.85;3.00;;;;;;;10.91;100.00;99394.72;5091833;28;20480;-43
2023/11/15 07:28:23;;;;;;;6.20;2.60;;;;;;;11.08;100.00;99399.63;5091841;28;20044;-44
2023/11/15 07:30:55;;;;;;;7.47;3.72;;;;;;;11.02;100.00;99395.63;5091936;28;20049;-44
2023/11/15 07:33:23;;;;;;;6.88;3.65;;;;;;;11.06;100.00;99407.75;5091596;28;20481;-44
2023/11/15 07:35:52;;;;;;;8.48;4.35;;;;;;;11.03;100.00;99409.81;5091775;28;20656;-44
2023/11/15 07:38:23;;;;;;;6.40;3.40;;;;;;;11.16;100.00;99387.41;5091816;28;20048;-44
2023/11/15 07:40:53;;;;;;;3.55;1.60;;;;;;;11.49;100.00;99411.66;5088767;28;20100;-42
2023/11/15 07:43:21;;;;;;;4.43;1.90;;;;;;;11.59;100.00;99407.31;5081048;28;20072;-43
2023/11/15 07:45:53;;;;;;;3.72;1.35;;;;;;;11.81;100.00;99395.81;5091222;28;20464;-42
2023/11/15 07:48:22;;;;;;;3.70;1.17;;;;;;;12.03;100.00;99425.19;5091523;28;20044;-43
2023/11/15 07:50:52;;;;;;;6.22;1.55;;;;;;;12.20;100.00;99416.69;5085067;28;20401;-42
2023/11/15 07:53:20;;;;;;;1.45;0.75;;;;;;;12.35;100.00;99437.81;5077539;28;20040;-42
2023/11/15 07:55:53;;;;;;;1.88;0.68;;;;;;;12.46;100.00;99429.81;5076757;28;20059;-43
2023/11/15 07:58:22;;;;;;;1.60;0.70;;;;;;;12.42;100.00;99442.56;5091411;28;20047;-43
2023/11/15 08:00:50;;;;;;;1.50;0.70;;;;;;;12.47;100.00;99445.72;5091485;28;20050;-42
2023/11/15 08:03:20;;;;;;;1.85;0.68;;;;;;;12.39;100.00;99442.81;5091315;28;20048;-42
2023/11/15 08:05:51;;;;;;;3.45;0.93;;;;;;;12.44;100.00;99437.94;5091428;28;20048;-42
2023/11/15 08:08:20;;;;;;;1.67;0.63;;;;;;;12.47;100.00;99440.38;5091410;28;20412;-43
2023/11/15 08:10:50;;;;;;;1.83;0.60;;;;;;;12.54;100.00;99446.91;5091482;28;20044;-42
2023/11/15 08:13:20;;;;;;;2.05;0.60;;;;;;;12.66;100.00;99447.75;5078321;28;20044;-44
2023/11/15 08:15:49;;;;;;;0.70;0.30;;;;;;;12.72;100.00;99430.34;5091473;28;20052;-42
2023/11/15 08:18:20;;;;;;;2.05;0.60;;;;;;;12.76;100.00;99446.03;5090839;28;20552;-43
2023/11/15 08:20:49;;;;;;;0.63;0.38;;;;;;;12.81;100.00;99449.16;5091203;28;20493;-43
2023/11/15 08:23:18;;;;;;;1.13;0.60;;;;;;;12.78;100.00;99454.78;5090687;28;20135;-43
2023/11/15 08:25:50;;;;;;;1.20;0.50;;;;;;;12.92;100.00;99463.50;5091342;28;20313;-44
2023/11/15 08:28:22;;;;;;;2.30;0.60;;;;;;;13.03;100.00;99431.34;5091269;28;20044;-43
2023/11/15 08:30:51;;;;;;;3.13;0.60;;;;;;;13.00;100.00;99451.19;5091154;28;20070;-42
2023/11/15 08:33:19;;;;;;;3.47;0.60;;;;;;;12.96;100.00;99449.75;5090681;28;20043;-44
2023/11/15 08:35:48;;;;;;;1.55;0.55;;;;;;;12.98;100.00;99463.00;5090646;28;20143;-44
2023/11/15 08:38:18;;;;;;;1.33;0.22;;;;;;;13.00;100.00;99448.50;5090698;28;20142;-42
2023/11/15 08:40:49;;;;;;;1.90;0.52;;;;;;;13.02;100.00;99454.56;5090780;28;20137;-43
2023/11/15 08:43:18;;;;;;;1.60;0.40;;;;;;;13.10;100.00;99452.09;5090523;28;20044;-43
2023/11/15 08:45:48;;;;;;;3.75;0.60;;;;;;;13.04;100.00;99452.63;5090549;28;20127;-44
2023/11/15 08:48:17;;;;;;;1.75;0.60;;;;;;;12.99;100.00;99462.88;5090852;28;20059;-42
2023/11/15 08:50:47;;;;;;;2.50;0.60;;;;;;;12.93;100.00;99465.19;5090870;28;20135;-43
2023/11/15 08:53:18;;;;;;;2.17;0.43;;;;;;;12.98;100.00;99463.00;5092572;28;20546;-43
2023/11/15 08:55:48;;;;;;;0.98;0.55;;;;;;;13.05;100.00;99469.56;5094641;28;20149;-44
2023/11/15 08:58:17;;;;;;;1.48;0.55;;;;;;;13.01;100.00;99474.28;5094663;28;20393;-42
2023/11/15 09:00:51;;;;;;;1.10;0.38;;;;;;;13.15;100.00;99483.88;5094427;28;20059;-42
2023/11/15 09:03:19;;;;;;;1.02;0.52;;;;;;;13.12;100.00;99482.31;5094595;28;20131;-43
2023/11/15 09:05:49;;;;;;;1.15;0.40;;;;;;;13.11;100.00;99485.09;5094281;28;20075;-43
2023/11/15 09:08:18;;;;;;;3.45;0.70;;;;;;;13.13;100.00;99489.38;5094311;28;20079;-42
2023/11/15 09:10:47;;;;;;;1.95;0.45;;;;;;;13.18;100.00;99492.50;5094160;28;20113;-43
2023/11/15 09:13:18;;;;;;;1.73;0.57;;;;;;;13.23;100.00;99486.81;5093893;28;20134;-44
2023/11/15 09:15:47;;;;;;;1.83;0.70;;;;;;;13.12;100.00;99514.44;5093990;28;20040;-43
2023/11/15 09:18:19;;;;;;;2.65;0.70;;;;;;;13.09;100.00;99495.94;5094144;28;20126;-42
2023/11/15 09:20:52;;;;;;;1.17;0.40;;;;;;;13.21;100.00;99512.00;5093837;28;20083;-44
2023/11/15 09:23:22;;;;;;;4.17;0.60;;;;;;;13.09;100.00;99509.31;5093815;28;20083;-43
2023/11/15 09:25:59;;;;;;;1.60;0.70;;;;;;;13.14;100.00;99506.28;5093752;28;20711;-43
2023/11/15 09:28:28;;;;;;;1.92;0.98;;;;;;;13.15;100.00;99503.47;5094084;28;20059;-42
2023/11/15 09:30:57;;;;;;;1.60;0.70;;;;;;;13.07;100.00;99513.09;5093955;28;20361;-44
2023/11/15 09:33:30;;;;;;;1.52;0.50;;;;;;;13.08;100.00;99521.00;5093854;28;20044;-43
2023/11/15 09:35:59;;;;;;;1.60;0.70;;;;;;;13.14;100.00;99527.69;5092887;28;20047;-44
2023/11/15 09:38:31;;;;;;;1.42;0.60;;;;;;;12.98;100.00;99549.50;5093504;28;20075;-44
2023/11/15 09:41:04;;;;;;;2.00;0.60;;;;;;;13.01;100.00;99541.22;5093452;28;20186;-44
2023/11/15 09:43:34;;;;;;;0.50;0.40;;;;;;;13.03;100.00;99538.44;5093336;28;20087;-44
2023/11/15 09:46:08;;;;;;;1.70;0.50;;;;;;;13.08;100.00;99542.44;5093481;28;20068;-43
2023/11/15 09:48:43;;;;;;;2.53;0.50;;;;;;;13.07;100.00;99537.19;5093344;28;20040;-43
2023/11/15 09:51:25;;;;;;;1.77;0.60;;;;;;;13.02;100.00;99542.91;5093253;28;20503;-44
2023/11/15 09:53:57;;;;;;;3.35;1.00;;;;;;;12.99;100.00;99540.50;5093283;28;20059;-42
2023/11/15 09:56:44;;;;;;;2.45;0.90;;;;;;;13.06;100.00;99546.22;5093197;28;20052;-45
2023/11/15 09:59:13;;;;;;;2.95;0.80;;;;;;;13.00;100.00;99552.06;5093185;28;20043;-43
2023/11/15 10:01:43;;;;;;;4.10;0.70;;;;;;;12.87;100.00;99562.91;5093329;28;20450;-45
2023/11/15 10:04:23;;;;;;;2.63;0.95;;;;;;;12.93;100.00;99570.44;5092643;28;20105;-43
2023/11/15 10:06:57;;;;;;;1.65;0.55;;;;;;;12.97;100.00;99571.06;5092686;28;20503;-43
2023/11/15 10:09:38;;;;;;;2.35;0.82;;;;;;;12.95;100.00;99578.34;5092834;28;20133;-43
2023/11/15 10:12:08;;;;;;;1.45;0.77;;;;;;;12.84;100.00;99581.91;5092787;28;20048;-43
2023/11/15 10:14:52;;;;;;;1.92;0.60;;;;;;;12.86;100.00;99571.91;5092698;28;20511;-43
2023/11/15 10:17:38;;;;;;;1.35;0.70;;;;;;;12.86;100.00;99572.75;5092491;28;20181;-43
2023/11/15 10:20:25;;;;;;;2.67;0.80;;;;;;;12.97;100.00;99569.22;5092661;28;20130;-42
2023/11/15 10:22:55;;;;;;;2.42;0.63;;;;;;;12.87;100.00;99570.94;5092697;28;20449;-43
2023/11/15 10:25:25;;;;;;;0.75;0.45;;;;;;;12.98;100.00;99567.41;5093151;28;20040;-44
2023/11/15 10:28:03;;;;;;;3.13;0.70;;;;;;;12.87;100.00;99573.63;5092863;28;20052;-44
2023/11/15 10:30:32;;;;;;;0.75;0.47;;;;;;;12.95;100.00;99559.63;5092478;28;20503;-42
2023/11/15 10:33:07;;;;;;;1.33;0.50;;;;;;;12.85;100.00;99564.88;5093108;28;20047;-44
2023/11/15 10:35:37;;;;;;;1.27;0.57;;;;;;;12.80;100.00;99572.41;5092944;28;20070;-50
2023/11/15 10:38:14;;;;;;;0.80;0.38;;;;;;;12.89;100.00;99567.16;5092923;28;20131;-42
2023/11/15 10:40:44;;;;;;;0.93;0.40;;;;;;;12.88;100.00;99575.31;5091467;28;20508;-45
2023/11/15 10:43:15;;;;;;;1.50;0.57;;;;;;;12.85;100.00;99586.28;5092609;28;20083;-43
2023/11/15 10:45:45;;;;;;;1.60;0.47;;;;;;;12.78;100.00;99595.75;5092553;28;20550;-43
2023/11/15 10:48:21;;;;;;;2.30;0.50;;;;;;;12.72;100.00;99596.22;5092750;28;20105;-43
2023/11/15 10:50:59;;;;;;;1.38;0.40;;;;;;;12.75;100.00;99590.66;5092368;28;20675;-43
2023/11/15 10:53:30;;;;;;;0.95;0.47;;;;;;;12.86;100.00;99612.91;5092285;28;20382;-42
2023/11/15 10:56:00;;;;;;;0.73;0.40;;;;;;;12.84;100.00;99595.28;5092632;28;20136;-44
2023/11/15 10:58:30;;;;;;;0.95;0.43;;;;;;;12.87;100.00;99600.38;5092629;28;20404;-43
2023/11/15 11:00:58;;;;;;;2.80;0.65;;;;;;;12.86;100.00;99604.03;5092451;28;20048;-43
2023/11/15 11:03:29;;;;;;;1.05;0.50;;;;;;;12.89;100.00;99598.44;5092207;28;20088;-44
2023/11/15 11:06:12;;;;;;;2.38;0.50;;;;;;;12.97;100.00;99601.34;5092142;28;20086;-42
2023/11/15 11:08:51;;;;;;;1.40;0.50;;;;;;;12.92;100.00;99598.16;5092424;28;20040;-44
2023/11/15 11:11:26;;;;;;;2.20;0.40;;;;;;;12.85;100.00;99584.44;5092070;28;20052;-45
2023/11/15 11:14:18;;;;;;;0.90;0.43;;;;;;;12.86;100.00;99594.19;5124574;27;20043;-43
2023/11/15 11:16:47;;;;;;;0.88;0.43;;;;;;;12.89;100.00;99593.06;5091139;28;20436;-42
2023/11/15 11:19:21;;;;;;;2.35;0.60;;;;;;;12.89;100.00;99598.44;5091513;28;20048;-43
2023/11/15 11:22:11;;;;;;;3.45;0.60;;;;;;;13.00;100.00;99586.84;5091701;28;20046;-43
2023/11/15 11:24:45;;;;;;;1.77;0.70;;;;;;;12.98;100.00;99580.78;5091936;28;20048;-43
2023/11/15 11:27:36;;;;;;;1.27;0.40;;;;;;;13.12;100.00;99600.13;5091632;28;20136;-43
2023/11/15 11:30:19;;;;;;;1.33;0.52;;;;;;;13.21;100.00;99611.06;5092020;28;20048;-44
2023/11/15 11:32:50;;;;;;;1.67;0.60;;;;;;;13.20;100.00;99617.41;5091723;28;20044;-44
2023/11/15 11:35:40;;;;;;;1.33;0.60;;;;;;;13.05;100.00;99616.81;5091638;28;20127;-43
2023/11/15 11:38:31;;;;;;;0.57;0.50;;;;;;;13.13;100.00;99609.84;5091745;28;20139;-43
2023/11/15 11:41:02;;;;;;;1.55;0.43;;;;;;;13.03;100.00;99611.56;5091482;28;20048;-43
2023/11/15 11:43:32;;;;;;;2.42;0.47;;;;;;;13.21;100.00;99608.38;5091372;28;20094;-44